createdAt,value
2023-02-06T00:01:51.312Z,23.60
2023-02-06T00:04:24.326Z,29.85
2023-02-06T00:06:51.002Z,24.93
2023-02-06T00:09:17.666Z,21.02
2023-02-06T00:11:48.160Z,25.65
2023-02-06T00:14:15.181Z,29.95
2023-02-06T00:16:42.160Z,31.48
2023-02-06T00:19:08.879Z,21.60
2023-02-06T00:21:35.690Z,25.92
2023-02-06T00:24:03.429Z,32.58
2023-02-06T00:26:34.867Z,24.20
2023-02-06T00:29:01.601Z,24.67
2023-02-06T00:31:28.684Z,22.13
2023-02-06T00:33:55.600Z,23.95
2023-02-06T00:36:26.906Z,28.77
2023-02-06T00:38:57.298Z,31.67
2023-02-06T00:41:23.978Z,24.85
2023-02-06T00:43:50.572Z,22.70
2023-02-06T00:46:17.638Z,21.13
2023-02-06T00:48:49.901Z,32.42
2023-02-06T00:51:19.737Z,28.85
2023-02-06T00:53:51.192Z,30.42
2023-02-06T00:56:18.336Z,29.97
2023-02-06T00:58:48.771Z,29.02
2023-02-06T01:01:17.000Z,24.70
2023-02-06T01:03:46.853Z,31.67
2023-02-06T01:06:14.425Z,31.80
2023-02-06T01:08:41.406Z,33.40
2023-02-06T01:11:23.825Z,30.08
2023-02-06T01:13:50.746Z,34.05
2023-02-06T01:16:22.765Z,22.63
2023-02-06T01:18:50.263Z,25.25
2023-02-06T01:21:20.595Z,22.70
2023-02-06T01:23:56.140Z,37.65
2023-02-06T01:26:26.931Z,15.27
2023-02-06T01:28:55.476Z,31.63
2023-02-06T01:31:26.228Z,27.65
2023-02-06T01:33:54.591Z,22.90
2023-02-06T01:36:25.138Z,23.58
2023-02-06T01:38:52.777Z,22.45
2023-02-06T01:41:22.718Z,25.40
2023-02-06T01:44:15.682Z,24.23
2023-02-06T01:46:54.780Z,19.40
2023-02-06T01:49:28.582Z,33.78
2023-02-06T01:52:01.806Z,23.08
2023-02-06T01:54:28.821Z,16.02
2023-02-06T01:57:01.352Z,19.98
2023-02-06T01:59:28.464Z,28.10
2023-02-06T02:01:55.537Z,34.13
2023-02-06T02:04:27.130Z,18.40
2023-02-06T02:07:23.112Z,23.92
2023-02-06T02:09:49.981Z,23.88
2023-02-06T02:12:17.007Z,25.63
2023-02-06T02:14:45.782Z,18.23
2023-02-06T02:17:30.989Z,21.27
2023-02-06T02:20:35.044Z,35.55
2023-02-06T02:23:29.256Z,30.73
2023-02-06T02:26:32.466Z,24.07
2023-02-06T02:29:23.948Z,24.05
2023-02-06T02:32:31.832Z,20.98
2023-02-06T02:35:20.770Z,28.40
2023-02-06T02:37:53.000Z,27.17
2023-02-06T02:40:43.960Z,27.47
2023-02-06T02:43:34.982Z,26.88
2023-02-06T02:46:24.316Z,26.00
2023-02-06T02:48:54.810Z,33.47
2023-02-06T02:51:22.312Z,24.00
2023-02-06T02:53:48.906Z,23.40
2023-02-06T02:56:21.620Z,18.27
2023-02-06T02:58:56.999Z,24.88
2023-02-06T03:01:32.110Z,23.63
2023-02-06T03:04:04.491Z,18.65
2023-02-06T03:06:52.937Z,22.53
2023-02-06T03:09:28.481Z,27.08
2023-02-06T03:12:12.240Z,22.00
2023-02-06T03:14:49.276Z,22.65
2023-02-06T03:17:24.975Z,19.85
2023-02-06T03:19:58.492Z,18.10
2023-02-06T03:22:28.198Z,17.63
2023-02-06T03:24:57.099Z,12.80
2023-02-06T03:27:27.320Z,28.42
2023-02-06T03:29:55.269Z,9.98
2023-02-06T03:32:32.498Z,13.00
2023-02-06T03:35:21.938Z,18.65
2023-02-06T03:37:50.234Z,13.02
2023-02-06T03:40:18.243Z,18.90
2023-02-06T03:42:51.225Z,19.45
2023-02-06T03:45:26.416Z,26.83
2023-02-06T03:47:56.595Z,13.73
2023-02-06T03:50:26.301Z,23.38
2023-02-06T03:52:55.662Z,25.20
2023-02-06T03:55:24.101Z,18.15
2023-02-06T03:57:59.194Z,26.90
2023-02-06T04:00:26.730Z,22.17
2023-02-06T04:02:55.420Z,16.27
2023-02-06T04:05:22.114Z,16.48
2023-02-06T04:07:49.049Z,23.38
2023-02-06T04:10:15.716Z,20.23
2023-02-06T04:12:42.248Z,20.25
2023-02-06T04:15:09.372Z,17.20
2023-02-06T04:17:53.550Z,18.52
2023-02-06T04:20:23.021Z,8.93
2023-02-06T04:22:50.386Z,16.83
2023-02-06T04:25:17.038Z,20.10
2023-02-06T04:27:43.630Z,24.75
2023-02-06T04:30:10.814Z,20.33
2023-02-06T04:32:37.403Z,23.95
2023-02-06T04:35:04.299Z,23.90
2023-02-06T04:37:30.971Z,20.33
2023-02-06T04:39:57.545Z,14.38
2023-02-06T04:42:24.099Z,15.73
2023-02-06T04:44:50.991Z,17.55
2023-02-06T04:47:17.745Z,24.10
2023-02-06T04:49:44.390Z,22.25
2023-02-06T04:52:10.999Z,31.92
2023-02-06T04:54:37.601Z,24.80
2023-02-06T04:57:04.193Z,22.88
2023-02-06T04:59:30.857Z,23.00
2023-02-06T05:01:57.521Z,23.73
2023-02-06T05:04:24.239Z,28.10
2023-02-06T05:06:50.882Z,21.00
2023-02-06T05:09:17.473Z,34.25
2023-02-06T05:11:44.152Z,15.53
2023-02-06T05:14:10.799Z,17.63
2023-02-06T05:16:37.469Z,27.83
2023-02-06T05:19:04.020Z,12.40
2023-02-06T05:21:30.826Z,19.13
2023-02-06T05:23:57.479Z,17.20
2023-02-06T05:26:24.105Z,16.25
2023-02-06T05:28:50.881Z,20.02
2023-02-06T05:31:20.533Z,18.02
2023-02-06T05:33:52.577Z,18.92
2023-02-06T05:36:20.275Z,19.90
2023-02-06T05:38:48.023Z,13.18
2023-02-06T05:41:15.542Z,20.27
2023-02-06T05:43:42.250Z,27.38
2023-02-06T05:46:09.609Z,18.70
2023-02-06T05:48:36.365Z,24.17
2023-02-06T05:51:03.052Z,24.55
2023-02-06T05:53:29.797Z,18.83
2023-02-06T05:55:57.256Z,37.05
2023-02-06T05:58:24.108Z,24.42
2023-02-06T06:00:50.657Z,20.83
2023-02-06T06:03:17.306Z,34.67
2023-02-06T06:05:43.927Z,14.32
2023-02-06T06:08:10.563Z,29.30
2023-02-06T06:10:37.260Z,18.77
2023-02-06T06:13:04.124Z,17.47
2023-02-06T06:15:30.907Z,31.58
2023-02-06T06:17:57.498Z,20.33
2023-02-06T06:20:24.121Z,27.48
2023-02-06T06:22:50.770Z,22.27
2023-02-06T06:25:17.416Z,25.20
2023-02-06T06:27:43.999Z,28.00
2023-02-06T06:30:11.289Z,19.42
2023-02-06T06:32:38.182Z,32.58
2023-02-06T06:35:05.224Z,24.00
2023-02-06T06:37:31.923Z,32.03
2023-02-06T06:39:58.520Z,29.42
2023-02-06T06:42:25.114Z,15.48
2023-02-06T06:44:51.839Z,26.38
2023-02-06T06:47:18.494Z,27.02
2023-02-06T06:49:45.035Z,17.20
2023-02-06T06:52:23.949Z,28.60
2023-02-06T06:54:52.433Z,32.85
2023-02-06T06:57:19.587Z,30.60
2023-02-06T06:59:46.217Z,20.88
2023-02-06T07:02:12.901Z,23.77
2023-02-06T07:04:39.872Z,43.38
2023-02-06T07:07:07.095Z,21.40
2023-02-06T07:09:34.175Z,24.80
2023-02-06T07:12:00.832Z,25.77
2023-02-06T07:14:27.460Z,30.93
2023-02-06T07:16:54.046Z,32.75
2023-02-06T07:19:21.458Z,16.30
2023-02-06T07:21:48.100Z,32.63
2023-02-06T07:24:14.924Z,40.70
2023-02-06T07:26:41.637Z,29.33
2023-02-06T07:29:08.362Z,32.55
2023-02-06T07:31:35.140Z,26.20
2023-02-06T07:34:02.345Z,25.33
2023-02-06T07:36:29.116Z,37.35
2023-02-06T07:38:56.040Z,36.33
2023-02-06T07:41:22.861Z,30.50
2023-02-06T07:43:49.462Z,21.25
2023-02-06T07:46:16.120Z,27.73
2023-02-06T07:48:42.784Z,27.13
2023-02-06T07:51:10.270Z,32.07
2023-02-06T07:53:37.992Z,27.20
2023-02-06T07:56:13.654Z,20.48
2023-02-06T07:58:41.133Z,25.63
2023-02-06T08:01:08.427Z,28.83
2023-02-06T08:03:35.332Z,20.40
2023-02-06T08:06:08.240Z,20.65
2023-02-06T08:08:34.980Z,24.23
2023-02-06T08:11:05.561Z,25.85
2023-02-06T08:13:32.321Z,25.42
2023-02-06T08:15:58.998Z,42.43
2023-02-06T08:18:26.388Z,34.20
2023-02-06T08:20:52.993Z,27.38
2023-02-06T08:23:20.913Z,22.50
2023-02-06T08:25:47.755Z,20.30
2023-02-06T08:28:15.117Z,25.47
2023-02-06T08:30:41.896Z,21.98
2023-02-06T08:33:08.493Z,32.05
2023-02-06T08:35:35.439Z,35.97
2023-02-06T08:38:02.166Z,20.45
2023-02-06T08:40:28.761Z,24.13
2023-02-06T08:42:55.391Z,15.77
2023-02-06T08:45:22.021Z,38.92
2023-02-06T08:47:48.755Z,33.05
2023-02-06T08:50:15.718Z,25.52
2023-02-06T08:52:42.375Z,26.27
2023-02-06T08:55:09.009Z,30.90
2023-02-06T08:57:35.625Z,21.02
2023-02-06T09:00:02.490Z,28.42
2023-02-06T09:02:29.100Z,26.92
2023-02-06T09:04:55.860Z,21.90
2023-02-06T09:07:22.523Z,31.48
2023-02-06T09:09:49.156Z,20.70
2023-02-06T09:12:15.882Z,26.85
2023-02-06T09:14:42.542Z,28.02
2023-02-06T09:17:09.175Z,30.57
2023-02-06T09:19:35.852Z,26.17
2023-02-06T09:22:02.759Z,31.70
2023-02-06T09:24:30.258Z,38.38
2023-02-06T09:27:00.138Z,26.77
2023-02-06T09:29:32.070Z,34.40
2023-02-06T09:31:59.406Z,22.48
2023-02-06T09:34:28.058Z,24.05
2023-02-06T09:36:56.734Z,21.17
2023-02-06T09:39:23.747Z,19.35
2023-02-06T09:41:56.731Z,21.00
2023-02-06T09:44:44.466Z,22.77
2023-02-06T09:47:19.954Z,28.13
2023-02-06T09:49:57.698Z,25.77
2023-02-06T09:52:27.010Z,21.95
2023-02-06T09:55:03.351Z,29.77
2023-02-06T09:57:41.685Z,29.92
2023-02-06T10:00:35.601Z,34.92
2023-02-06T10:03:27.126Z,27.15
2023-02-06T10:05:59.538Z,26.08
2023-02-06T10:08:34.234Z,29.23
2023-02-06T10:11:09.558Z,31.27
2023-02-06T10:13:49.756Z,40.05
2023-02-06T10:16:26.144Z,32.42
2023-02-06T10:18:57.860Z,24.08
2023-02-06T10:21:42.782Z,29.23
2023-02-06T10:24:23.803Z,30.90
2023-02-06T10:26:53.486Z,22.55
2023-02-06T10:29:28.342Z,34.90
2023-02-06T10:32:02.108Z,27.40
2023-02-06T10:34:37.618Z,19.53
2023-02-06T10:37:20.080Z,30.42
2023-02-06T10:40:01.515Z,34.60
2023-02-06T10:42:43.951Z,26.42
2023-02-06T10:45:20.162Z,18.95
2023-02-06T10:47:56.285Z,19.30
2023-02-06T10:50:30.885Z,25.55
2023-02-06T10:53:03.895Z,24.90
2023-02-06T10:55:49.242Z,22.75
2023-02-06T10:58:42.823Z,31.95
2023-02-06T11:01:25.048Z,25.23
2023-02-06T11:04:12.544Z,25.42
2023-02-06T11:06:41.544Z,24.52
2023-02-06T11:09:10.371Z,23.73
2023-02-06T11:11:40.958Z,26.60
2023-02-06T11:14:25.312Z,19.97
2023-02-06T11:16:53.386Z,28.95
2023-02-06T11:19:36.195Z,16.25
2023-02-06T11:22:07.262Z,27.67
2023-02-06T11:24:38.515Z,22.17
2023-02-06T11:27:22.815Z,23.73
2023-02-06T11:29:52.171Z,21.35
2023-02-06T11:32:27.756Z,22.63
2023-02-06T11:34:59.216Z,17.17
2023-02-06T11:37:36.748Z,30.50
2023-02-06T11:40:18.718Z,23.83
2023-02-06T11:42:47.112Z,22.83
2023-02-06T11:45:23.016Z,29.65
2023-02-06T11:47:49.829Z,17.20
2023-02-06T11:50:36.465Z,21.52
2023-02-06T11:53:11.831Z,23.83
2023-02-06T11:55:39.789Z,17.02
2023-02-06T11:58:12.540Z,19.40
2023-02-06T12:00:52.340Z,23.95
2023-02-06T12:03:25.239Z,32.13
2023-02-06T12:05:52.384Z,20.03
2023-02-06T12:08:21.921Z,20.90
2023-02-06T12:10:59.771Z,16.80
2023-02-06T12:13:37.519Z,13.57
2023-02-06T12:16:07.749Z,18.17
2023-02-06T12:18:38.677Z,19.23
2023-02-06T12:21:07.681Z,17.58
2023-02-06T12:23:34.269Z,24.85
2023-02-06T12:26:05.053Z,13.93
2023-02-06T12:28:42.861Z,22.83
2023-02-06T12:31:42.978Z,20.33
2023-02-06T12:34:18.507Z,15.77
2023-02-06T12:37:10.599Z,17.83
2023-02-06T12:39:37.430Z,16.13
2023-02-06T12:42:32.070Z,21.27
2023-02-06T12:45:15.758Z,14.93
2023-02-06T12:47:52.048Z,20.05
2023-02-06T12:50:27.225Z,22.67
2023-02-06T12:53:04.626Z,27.50
2023-02-06T12:55:40.157Z,21.67
2023-02-06T12:58:30.294Z,13.17
2023-02-06T13:01:02.297Z,24.83
2023-02-06T13:03:34.809Z,19.73
2023-02-06T13:06:12.392Z,14.80
2023-02-06T13:08:50.337Z,12.02
2023-02-06T13:11:31.941Z,18.13
2023-02-06T13:14:23.138Z,15.23
2023-02-06T13:16:53.379Z,14.60
2023-02-06T13:19:42.078Z,26.92
2023-02-06T13:22:08.746Z,19.10
2023-02-06T13:24:36.929Z,12.60
2023-02-06T13:27:09.736Z,13.60
2023-02-06T13:29:46.996Z,15.10
2023-02-06T13:32:18.636Z,25.05
2023-02-06T13:34:53.797Z,21.80
2023-02-06T13:37:39.947Z,15.70
2023-02-06T13:40:25.599Z,22.23
2023-02-06T13:42:55.973Z,15.40
2023-02-06T13:45:27.780Z,11.68
2023-02-06T13:48:06.325Z,17.40
2023-02-06T13:50:46.904Z,15.17
2023-02-06T13:53:53.512Z,19.60
2023-02-06T13:56:44.720Z,16.27
2023-02-06T13:59:33.104Z,15.70
2023-02-06T14:02:19.981Z,17.95
2023-02-06T14:04:47.007Z,10.23
2023-02-06T14:07:22.837Z,13.77
2023-02-06T14:10:14.112Z,18.30
2023-02-06T14:12:49.802Z,17.67
2023-02-06T14:15:39.674Z,25.77
2023-02-06T14:18:25.028Z,16.57
2023-02-06T14:21:09.932Z,16.17
2023-02-06T14:24:19.771Z,11.98
2023-02-06T14:26:58.393Z,11.63
2023-02-06T14:29:37.922Z,14.60
2023-02-06T14:32:16.597Z,21.17
2023-02-06T14:35:14.319Z,22.65
2023-02-06T14:37:57.829Z,12.45
2023-02-06T14:40:27.135Z,15.73
2023-02-06T14:42:58.212Z,12.68
2023-02-06T14:45:40.812Z,13.60
2023-02-06T14:48:30.336Z,15.50
2023-02-06T14:50:58.423Z,11.27
2023-02-06T14:53:39.470Z,12.43
2023-02-06T14:56:07.691Z,20.50
2023-02-06T14:58:34.689Z,11.43
2023-02-06T15:01:21.178Z,13.73
2023-02-06T15:03:50.070Z,19.40
2023-02-06T15:06:31.041Z,10.65
2023-02-06T15:08:57.787Z,15.13
2023-02-06T15:11:32.394Z,29.03
2023-02-06T15:14:03.504Z,9.65
2023-02-06T15:16:31.082Z,22.10
2023-02-06T15:19:12.646Z,21.85
2023-02-06T15:21:43.172Z,13.77
2023-02-06T15:24:17.700Z,9.87
2023-02-06T15:27:26.588Z,13.80
2023-02-06T15:29:53.412Z,17.77
2023-02-06T15:32:33.239Z,12.82
2023-02-06T15:35:01.628Z,16.42
2023-02-06T15:37:32.435Z,20.57
2023-02-06T15:40:13.117Z,18.27
2023-02-06T15:42:40.484Z,20.58
2023-02-06T15:45:15.322Z,13.23
2023-02-06T15:47:44.634Z,11.13
2023-02-06T15:50:16.152Z,8.03
2023-02-06T15:52:47.102Z,17.67
2023-02-06T15:55:28.198Z,14.02
2023-02-06T15:57:56.968Z,13.82
2023-02-06T16:00:30.539Z,15.13
2023-02-06T16:03:03.088Z,9.90
2023-02-06T16:05:31.106Z,11.25
2023-02-06T16:07:58.846Z,19.73
2023-02-06T16:10:36.550Z,13.43
2023-02-06T16:13:10.901Z,12.20
2023-02-06T16:15:39.811Z,12.83
2023-02-06T16:18:25.050Z,18.27
2023-02-06T16:20:51.724Z,16.48
2023-02-06T16:23:19.873Z,15.38
2023-02-06T16:25:48.767Z,12.73
2023-02-06T16:28:23.557Z,21.67
2023-02-06T16:31:04.872Z,18.83
2023-02-06T16:33:40.758Z,18.60
2023-02-06T16:36:07.922Z,12.77
2023-02-06T16:38:34.816Z,13.63
2023-02-06T16:41:01.518Z,19.37
2023-02-06T16:43:30.678Z,16.52
2023-02-06T16:46:00.221Z,19.30
2023-02-06T16:48:26.845Z,27.58
2023-02-06T16:50:53.624Z,16.10
2023-02-06T16:53:24.044Z,15.63
2023-02-06T16:55:51.402Z,12.98
2023-02-06T16:58:21.791Z,11.07
2023-02-06T17:00:49.168Z,14.20
2023-02-06T17:03:17.537Z,14.65
2023-02-06T17:05:46.392Z,18.57
2023-02-06T17:08:21.771Z,14.93
2023-02-06T17:10:49.007Z,14.77
2023-02-06T17:13:18.522Z,12.27
2023-02-06T17:15:49.160Z,13.38
2023-02-06T17:18:18.667Z,12.80
2023-02-06T17:20:48.821Z,11.95
2023-02-06T17:23:15.960Z,9.43
2023-02-06T17:25:44.544Z,14.48
2023-02-06T17:28:17.469Z,23.67
2023-02-06T17:30:45.795Z,14.50
2023-02-06T17:33:12.770Z,19.30
2023-02-06T17:35:39.509Z,12.57
2023-02-06T17:38:08.408Z,12.88
2023-02-06T17:40:37.433Z,13.23
2023-02-06T17:43:04.748Z,14.50
2023-02-06T17:45:32.216Z,29.13
2023-02-06T17:47:58.846Z,24.02
2023-02-06T17:50:27.566Z,15.73
2023-02-06T17:52:56.117Z,13.30
2023-02-06T17:55:24.056Z,18.03
2023-02-06T17:57:51.571Z,13.48
2023-02-06T18:00:20.234Z,23.80
2023-02-06T18:02:46.814Z,15.85
2023-02-06T18:05:13.631Z,19.50
2023-02-06T18:07:40.654Z,31.77
2023-02-06T18:10:08.901Z,18.73
2023-02-06T18:12:35.856Z,27.10
2023-02-06T18:15:03.416Z,19.45
2023-02-06T18:17:30.969Z,16.58
2023-02-06T18:19:57.735Z,21.43
2023-02-06T18:22:24.320Z,22.40
2023-02-06T18:24:51.256Z,19.88
2023-02-06T18:27:19.621Z,18.17
2023-02-06T18:29:50.027Z,18.55
2023-02-06T18:32:18.246Z,19.97
2023-02-06T18:34:45.079Z,11.05
2023-02-06T18:37:11.757Z,23.30
2023-02-06T18:39:39.312Z,20.75
2023-02-06T18:42:24.285Z,22.35
2023-02-06T18:44:50.896Z,28.70
2023-02-06T18:47:18.867Z,18.58
2023-02-06T18:49:45.473Z,18.80
2023-02-06T18:52:12.619Z,28.25
2023-02-06T18:54:39.617Z,19.80
2023-02-06T18:57:06.351Z,25.93
2023-02-06T18:59:33.089Z,19.08
2023-02-06T19:01:59.794Z,29.33
2023-02-06T19:04:26.493Z,40.53
2023-02-06T19:06:53.075Z,32.13
2023-02-06T19:09:20.193Z,21.50
2023-02-06T19:11:48.160Z,31.35
2023-02-06T19:14:16.928Z,29.00
2023-02-06T19:16:47.323Z,24.75
2023-02-06T19:19:14.125Z,24.60
2023-02-06T19:21:40.964Z,33.57
2023-02-06T19:24:08.124Z,90.55
2023-02-06T19:26:34.782Z,76.13
2023-02-06T19:29:01.497Z,67.20
2023-02-06T19:31:28.334Z,46.10
2023-02-06T19:33:58.321Z,25.93
2023-02-06T19:36:27.007Z,32.00
2023-02-06T19:38:56.474Z,34.88
2023-02-06T19:41:25.365Z,26.10
2023-02-06T19:43:53.784Z,30.38
2023-02-06T19:46:22.969Z,33.10
2023-02-06T19:48:51.390Z,29.77
2023-02-06T19:51:21.393Z,28.77
2023-02-06T19:53:53.387Z,28.65
2023-02-06T19:56:26.404Z,27.45
2023-02-06T19:58:58.061Z,30.50
2023-02-06T20:01:25.234Z,25.52
2023-02-06T20:03:53.051Z,28.80
2023-02-06T20:06:19.833Z,34.90
2023-02-06T20:08:47.198Z,31.42
2023-02-06T20:11:17.604Z,29.67
2023-02-06T20:13:46.983Z,36.95
2023-02-06T20:16:19.249Z,32.15
2023-02-06T20:18:46.033Z,31.33
2023-02-06T20:21:27.955Z,35.35
2023-02-06T20:23:57.026Z,39.90
2023-02-06T20:26:26.778Z,38.83
2023-02-06T20:28:53.483Z,38.75
2023-02-06T20:31:21.323Z,40.45
2023-02-06T20:33:49.246Z,36.20
2023-02-06T20:36:18.957Z,37.17
2023-02-06T20:38:56.928Z,42.85
2023-02-06T20:41:27.673Z,44.67
2023-02-06T20:43:57.236Z,36.72
2023-02-06T20:46:25.135Z,47.75
2023-02-06T20:48:57.393Z,47.57
2023-02-06T20:51:24.804Z,51.42
2023-02-06T20:53:51.685Z,49.53
2023-02-06T20:56:19.820Z,45.45
2023-02-06T20:58:46.781Z,49.35
2023-02-06T21:01:27.054Z,47.23
2023-02-06T21:04:03.455Z,51.63
2023-02-06T21:06:30.718Z,50.17
2023-02-06T21:09:00.203Z,38.85
2023-02-06T21:11:37.345Z,49.88
2023-02-06T21:14:05.325Z,42.60
2023-02-06T21:16:33.218Z,43.17
2023-02-06T21:19:01.057Z,50.15
2023-02-06T21:21:27.730Z,51.65
2023-02-06T21:23:55.967Z,40.95
2023-02-06T21:26:23.928Z,36.67
2023-02-06T21:28:50.767Z,49.53
2023-02-06T21:31:20.810Z,31.95
2023-02-06T21:33:48.913Z,37.65
2023-02-06T21:36:16.306Z,43.38
2023-02-06T21:38:43.641Z,36.20
2023-02-06T21:41:13.535Z,36.60
2023-02-06T21:43:40.512Z,35.67
2023-02-06T21:46:07.299Z,36.35
2023-02-06T21:48:35.259Z,39.25
2023-02-06T21:51:13.410Z,53.60
2023-02-06T21:53:40.783Z,38.53
2023-02-06T21:56:09.344Z,38.35
2023-02-06T21:58:36.657Z,35.45
2023-02-06T22:01:08.759Z,34.90
2023-02-06T22:03:35.604Z,39.77
2023-02-06T22:06:09.167Z,43.55
2023-02-06T22:08:36.433Z,63.25
2023-02-06T22:11:12.860Z,40.95
2023-02-06T22:13:40.218Z,41.83
2023-02-06T22:16:08.873Z,45.40
2023-02-06T22:18:35.755Z,43.00
2023-02-06T22:21:13.684Z,38.25
2023-02-06T22:23:40.953Z,46.60
2023-02-06T22:26:09.907Z,48.80
2023-02-06T22:28:37.040Z,41.83
2023-02-06T22:31:13.328Z,31.75
2023-02-06T22:33:40.383Z,39.25
2023-02-06T22:36:10.035Z,49.60
2023-02-06T22:38:37.270Z,34.55
2023-02-06T22:41:06.831Z,40.20
2023-02-06T22:43:35.704Z,43.38
2023-02-06T22:46:03.222Z,46.90
2023-02-06T22:48:29.922Z,40.05
2023-02-06T22:50:57.049Z,45.47
2023-02-06T22:53:29.705Z,42.07
2023-02-06T22:56:20.964Z,41.00
2023-02-06T22:58:49.130Z,40.00
2023-02-06T23:01:17.300Z,38.58
2023-02-06T23:03:43.993Z,45.20
2023-02-06T23:06:12.866Z,33.00
2023-02-06T23:08:40.895Z,32.03
2023-02-06T23:11:09.248Z,37.72
2023-02-06T23:13:36.179Z,37.50
2023-02-06T23:16:03.704Z,39.08
2023-02-06T23:18:30.705Z,48.13
2023-02-06T23:20:59.466Z,30.70
2023-02-06T23:23:29.439Z,32.45
2023-02-06T23:25:57.347Z,29.88
2023-02-06T23:28:25.586Z,31.20
2023-02-06T23:30:53.046Z,33.63
2023-02-06T23:33:19.824Z,30.58
2023-02-06T23:35:46.763Z,25.20
2023-02-06T23:38:13.592Z,21.70
2023-02-06T23:40:40.332Z,29.98
2023-02-06T23:43:07.537Z,30.83
2023-02-06T23:45:34.737Z,30.65
2023-02-06T23:48:01.986Z,33.30
2023-02-06T23:50:28.961Z,25.92
2023-02-06T23:52:55.513Z,22.67
2023-02-06T23:55:22.153Z,23.47
2023-02-06T23:57:48.849Z,31.35
